Time;durP1;ratioP1;P1;durP2;ratioP2;P2;SDS_P1;SDS_P2;PMS_P1;PMS_P2;Temp;Humidity;BMP_temperature;BMP_pressure;BME280_temperature;BME280_humidity;BME280_pressure;Samples;Min_cycle;Max_cycle;Signal;HPM_P1;HPM_P2
2023/12/13 00:02:02;;;;;;;0.20;0.20;;;;;;;5.75;80.64;100978.81;4955600;28;20034;-90
2023/12/13 00:04:27;;;;;;;0.20;0.20;;;;;;;5.73;81.36;100969.47;4971330;28;20034;-89
2023/12/13 00:06:53;;;;;;;0.20;0.20;;;;;;;5.71;81.60;100960.97;4955540;28;20042;-89
2023/12/13 00:09:18;;;;;;;0.20;0.20;;;;;;;5.72;81.95;100980.63;4971063;28;20031;-89
2023/12/13 00:11:44;;;;;;;0.20;0.20;;;;;;;5.68;81.34;100974.69;4955105;28;20038;-92
2023/12/13 00:14:10;;;;;;;0.20;0.20;;;;;;;5.81;81.22;100977.00;4954996;28;20173;-89
2023/12/13 00:16:38;;;;;;;0.20;0.20;;;;;;;5.84;81.16;100961.53;4939276;28;20117;-88
2023/12/13 00:19:04;;;;;;;0.20;0.20;;;;;;;5.90;81.23;100975.09;4955232;28;20027;-90
2023/12/13 00:21:30;;;;;;;0.20;0.20;;;;;;;5.80;81.94;100972.72;4939348;28;20085;-90
2023/12/13 00:23:56;;;;;;;0.20;0.20;;;;;;;5.79;82.23;100964.19;4972527;28;20034;-89
2023/12/13 00:26:23;;;;;;;0.20;0.20;;;;;;;5.87;82.21;100952.00;4971141;28;20062;-89
2023/12/13 00:28:49;;;;;;;0.20;0.20;;;;;;;5.93;81.80;100957.03;4955673;28;20089;-89
2023/12/13 00:31:14;;;;;;;0.20;0.20;;;;;;;6.03;81.61;100967.94;4955376;28;20030;-89
2023/12/13 00:33:40;;;;;;;0.20;0.20;;;;;;;5.97;81.57;100962.94;4971139;28;20066;-88
2023/12/13 00:36:06;;;;;;;0.20;0.20;;;;;;;5.92;81.65;100947.66;4955179;28;20046;-90
2023/12/13 00:38:32;;;;;;;0.20;0.20;;;;;;;6.00;81.09;100953.44;4955177;28;20023;-89
2023/12/13 00:40:58;;;;;;;0.20;0.20;;;;;;;6.07;81.30;100948.13;4955075;28;20118;-90
2023/12/13 00:43:23;;;;;;;0.20;0.20;;;;;;;6.10;81.35;100953.22;4971175;28;20034;-90
2023/12/13 00:45:49;;;;;;;0.20;0.20;;;;;;;6.10;81.14;100948.09;4955119;28;20505;-90
2023/12/13 00:48:14;;;;;;;0.20;0.20;;;;;;;6.11;81.00;100966.03;4955077;28;20481;-89
2023/12/13 00:50:40;;;;;;;0.20;0.20;;;;;;;6.14;80.55;100959.94;4954866;28;20049;-90
2023/12/13 00:53:06;;;;;;;0.20;0.20;;;;;;;6.13;80.78;100969.38;4955459;28;20512;-89
2023/12/13 00:55:31;;;;;;;0.20;0.20;;;;;;;6.12;81.11;100964.28;4942521;28;20560;-90
2023/12/13 00:57:57;;;;;;;0.20;0.20;;;;;;;6.09;81.03;100961.78;4975013;28;20508;-89
2023/12/13 01:00:23;;;;;;;0.20;0.20;;;;;;;6.13;81.27;100959.09;4958664;28;20035;-90
2023/12/13 01:02:48;;;;;;;0.20;0.20;;;;;;;6.23;81.12;100955.44;4958501;28;20046;-91
2023/12/13 01:05:14;;;;;;;0.20;0.20;;;;;;;6.11;81.43;100932.63;4974406;28;21032;-89
2023/12/13 01:07:40;;;;;;;0.20;0.20;;;;;;;6.35;81.23;100949.13;4974730;28;20050;-91
2023/12/13 01:10:06;;;;;;;0.20;0.20;;;;;;;6.30;80.95;100940.69;4974479;28;20031;-88
2023/12/13 01:12:31;;;;;;;0.20;0.20;;;;;;;6.38;80.83;100925.91;4974694;28;20043;-89
2023/12/13 01:14:57;;;;;;;0.20;0.20;;;;;;;6.25;80.88;100937.41;4958430;28;20086;-89
2023/12/13 01:17:22;;;;;;;0.20;0.20;;;;;;;6.27;80.77;100928.75;4974346;28;20489;-89
2023/12/13 01:19:50;;;;;;;0.10;0.10;;;;;;;6.19;80.85;100915.25;4942209;28;20031;-90
2023/12/13 01:22:15;;;;;;;0.20;0.20;;;;;;;6.26;80.75;100914.22;4974265;28;20043;-91
2023/12/13 01:24:41;;;;;;;0.20;0.20;;;;;;;6.26;80.35;100915.97;4957559;28;20029;-89
2023/12/13 01:27:06;;;;;;;0.20;0.20;;;;;;;6.23;79.97;100909.19;4974067;28;20027;-89
2023/12/13 01:29:32;;;;;;;0.20;0.20;;;;;;;6.27;80.50;100889.38;4958296;28;20023;-90
2023/12/13 01:31:57;;;;;;;0.20;0.20;;;;;;;6.27;80.91;100894.50;4958137;28;20035;-89
2023/12/13 01:34:23;;;;;;;0.20;0.20;;;;;;;6.12;81.61;100882.09;4973778;28;20035;-90
2023/12/13 01:36:48;;;;;;;0.20;0.20;;;;;;;6.07;81.77;100861.66;4974118;28;20031;-89
2023/12/13 01:39:17;;;;;;;0.20;0.20;;;;;;;6.17;81.47;100882.78;4973874;28;20023;-89
2023/12/13 01:41:43;;;;;;;0.20;0.20;;;;;;;6.24;80.86;100874.06;4974038;28;20599;-91
2023/12/13 01:44:09;;;;;;;0.20;0.20;;;;;;;6.13;80.79;100868.38;4958181;28;20114;-90
2023/12/13 01:46:34;;;;;;;0.20;0.20;;;;;;;6.12;81.31;100862.38;4973799;28;20110;-89
2023/12/13 01:49:01;;;;;;;0.20;0.20;;;;;;;6.21;81.66;100874.16;4957841;28;20110;-90
2023/12/13 01:51:26;;;;;;;0.20;0.20;;;;;;;6.08;81.23;100885.59;4973889;28;20165;-89
2023/12/13 01:53:52;;;;;;;0.20;0.20;;;;;;;6.18;80.32;100884.47;4957532;28;20023;-90
2023/12/13 01:56:17;;;;;;;0.20;0.20;;;;;;;6.09;80.72;100875.28;4973783;28;20038;-89
2023/12/13 01:58:43;;;;;;;0.20;0.20;;;;;;;6.14;80.92;100864.91;4973825;28;20023;-91
2023/12/13 02:01:08;;;;;;;0.20;0.20;;;;;;;6.16;80.99;100860.56;4957448;28;20026;-90
2023/12/13 02:03:35;;;;;;;0.20;0.20;;;;;;;6.21;80.38;100862.13;4973554;28;20030;-89
2023/12/13 02:06:01;;;;;;;0.20;0.20;;;;;;;6.13;80.82;100870.94;4973442;28;20494;-89
2023/12/13 02:08:27;;;;;;;0.20;0.20;;;;;;;5.99;80.90;100869.56;4957471;28;20555;-91
2023/12/13 02:10:52;;;;;;;0.20;0.20;;;;;;;5.86;81.04;100815.97;4974844;28;20027;-89
2023/12/13 02:13:18;;;;;;;0.10;0.10;;;;;;;6.03;80.93;100824.94;4973406;28;20051;-90
2023/12/13 02:15:44;;;;;;;0.20;0.20;;;;;;;6.11;80.94;100834.19;4973800;28;20030;-89
2023/12/13 02:18:09;;;;;;;0.20;0.20;;;;;;;6.00;81.17;100834.47;4973462;28;20026;-91
2023/12/13 02:20:35;;;;;;;0.20;0.20;;;;;;;5.84;81.21;100815.16;4957118;28;20187;-89
2023/12/13 02:23:01;;;;;;;0.10;0.10;;;;;;;6.11;80.58;100859.88;4973076;28;20031;-89
2023/12/13 02:25:57;;;;;;;0.20;0.20;;;;;;;6.01;80.76;100861.84;4957078;28;20066;-90
2023/12/13 02:28:26;;;;;;;0.20;0.20;;;;;;;6.03;80.82;100845.50;4987054;28;20039;-92
2023/12/13 02:30:56;;;;;;;0.20;0.20;;;;;;;6.04;81.25;100842.03;4957395;28;20026;-89
2023/12/13 02:33:26;;;;;;;0.20;0.20;;;;;;;5.93;81.98;100838.91;4972890;28;20038;-89
2023/12/13 02:35:53;;;;;;;0.20;0.20;;;;;;;5.97;81.45;100832.81;4957211;28;20023;-91
2023/12/13 02:38:18;;;;;;;0.20;0.20;;;;;;;6.08;81.26;100847.06;4972749;28;20408;-91
2023/12/13 02:40:43;;;;;;;0.20;0.20;;;;;;;6.13;80.78;100855.53;4972928;28;20038;-89
2023/12/13 02:43:09;;;;;;;0.20;0.20;;;;;;;5.94;81.12;100826.91;4972706;28;20027;-89
2023/12/13 02:45:35;;;;;;;0.20;0.20;;;;;;;6.22;80.68;100839.84;4972887;28;20030;-89
2023/12/13 02:48:00;;;;;;;0.20;0.20;;;;;;;6.21;80.68;100848.44;4956756;28;20057;-90
2023/12/13 02:50:26;;;;;;;0.20;0.20;;;;;;;6.17;80.68;100846.84;4972763;28;20441;-90
2023/12/13 02:52:51;;;;;;;0.20;0.20;;;;;;;6.26;80.30;100852.56;4955807;28;20027;-91
2023/12/13 02:55:17;;;;;;;0.20;0.20;;;;;;;6.27;80.11;100853.41;4956830;28;20413;-89
2023/12/13 02:57:42;;;;;;;0.20;0.20;;;;;;;6.25;79.84;100850.03;4956569;28;20519;-90
2023/12/13 03:00:08;;;;;;;0.20;0.20;;;;;;;6.17;80.44;100832.25;4956777;28;20037;-90
2023/12/13 03:02:34;;;;;;;0.20;0.20;;;;;;;6.31;80.11;100849.88;4972441;28;20030;-91
2023/12/13 03:05:01;;;;;;;0.15;0.15;;;;;;;6.22;80.50;100842.44;4956340;28;20039;-89
2023/12/13 03:07:27;;;;;;;0.20;0.20;;;;;;;6.24;80.99;100843.22;4956300;28;20547;-89
2023/12/13 03:09:52;;;;;;;0.20;0.20;;;;;;;6.24;80.63;100828.66;4956351;28;20030;-89
2023/12/13 03:12:18;;;;;;;0.20;0.20;;;;;;;6.11;80.95;100781.06;4972443;28;20027;-89
2023/12/13 03:14:43;;;;;;;0.20;0.20;;;;;;;6.29;80.72;100780.56;4989559;28;20516;-90
2023/12/13 03:17:09;;;;;;;0.20;0.20;;;;;;;6.27;81.24;100787.44;4959152;28;20506;-89
2023/12/13 03:19:34;;;;;;;0.20;0.20;;;;;;;6.31;80.72;100790.78;4943373;28;20031;-90
2023/12/13 03:22:00;;;;;;;0.20;0.20;;;;;;;6.20;80.53;100798.81;4975218;28;20034;-89
2023/12/13 03:24:25;;;;;;;0.20;0.20;;;;;;;6.21;80.58;100815.91;4975533;28;20041;-91
2023/12/13 03:26:51;;;;;;;0.20;0.20;;;;;;;6.16;80.81;100810.03;4959497;28;20030;-89
2023/12/13 03:29:17;;;;;;;0.20;0.20;;;;;;;6.14;80.57;100805.81;4975514;28;20049;-90
2023/12/13 03:31:43;;;;;;;0.20;0.20;;;;;;;6.27;80.54;100843.97;4943256;28;20038;-89
2023/12/13 03:34:08;;;;;;;0.20;0.20;;;;;;;6.18;80.48;100833.09;4975265;28;20031;-90
2023/12/13 03:36:34;;;;;;;0.20;0.20;;;;;;;6.27;80.94;100850.84;4975165;28;20038;-89
2023/12/13 03:38:59;;;;;;;0.20;0.20;;;;;;;6.30;80.63;100855.91;4958942;28;20085;-90
2023/12/13 03:41:25;;;;;;;0.20;0.20;;;;;;;6.36;80.71;100854.88;4958903;28;20030;-90
2023/12/13 03:43:51;;;;;;;0.20;0.20;;;;;;;6.29;80.47;100836.22;4959185;28;20030;-90
2023/12/13 03:46:16;;;;;;;0.20;0.20;;;;;;;6.22;80.63;100797.03;4943140;28;20018;-89
2023/12/13 03:48:42;;;;;;;0.20;0.20;;;;;;;6.42;80.60;100811.88;4991233;28;20026;-89
2023/12/13 03:51:07;;;;;;;0.20;0.20;;;;;;;6.25;80.60;100778.94;4974682;28;20069;-91
2023/12/13 03:53:33;;;;;;;0.20;0.20;;;;;;;6.46;80.32;100787.75;4974849;28;20034;-90
2023/12/13 03:55:59;;;;;;;0.20;0.20;;;;;;;6.47;80.29;100762.91;4975480;28;20033;-89
2023/12/13 03:58:25;;;;;;;0.20;0.20;;;;;;;6.41;80.90;100769.06;4974831;28;20022;-90
2023/12/13 04:00:51;;;;;;;0.20;0.20;;;;;;;6.34;81.13;100782.97;4942905;28;20037;-90
2023/12/13 04:03:16;;;;;;;0.20;0.20;;;;;;;6.31;81.53;100783.09;4946802;28;20027;-93
2023/12/13 04:05:42;;;;;;;0.20;0.20;;;;;;;6.33;81.63;100784.72;4949996;28;20035;-93
2023/12/13 04:08:08;;;;;;;0.20;0.20;;;;;;;6.29;82.14;100780.56;4967180;28;20026;-92
2023/12/13 04:10:34;;;;;;;0.20;0.20;;;;;;;6.33;81.98;100755.59;4976126;28;20066;-89
2023/12/13 04:12:59;;;;;;;0.20;0.20;;;;;;;6.32;81.87;100754.78;4974319;28;20065;-89
2023/12/13 04:15:25;;;;;;;0.20;0.20;;;;;;;6.39;81.82;100763.16;4991822;28;20053;-89
2023/12/13 04:17:50;;;;;;;0.20;0.20;;;;;;;6.34;81.99;100785.56;4991626;28;20038;-89
2023/12/13 04:20:16;;;;;;;0.10;0.10;;;;;;;6.33;82.35;100779.56;4957889;28;20030;-88
2023/12/13 04:22:42;;;;;;;0.20;0.20;;;;;;;6.39;82.09;100788.84;4958062;28;20027;-88
2023/12/13 04:25:07;;;;;;;0.20;0.20;;;;;;;6.35;82.10;100788.97;4958491;28;20038;-90
2023/12/13 04:27:33;;;;;;;0.20;0.20;;;;;;;6.41;82.35;100812.75;4943602;28;20540;-90
2023/12/13 04:29:59;;;;;;;0.20;0.20;;;;;;;6.44;82.75;100804.13;4958166;28;20037;-91
2023/12/13 04:32:24;;;;;;;0.20;0.20;;;;;;;6.46;82.67;100810.03;4959619;28;20038;-95
2023/12/13 04:34:50;;;;;;;0.20;0.20;;;;;;;6.48;82.59;100805.69;4960337;28;20041;-93
2023/12/13 04:37:15;;;;;;;0.20;0.20;;;;;;;6.52;82.38;100790.16;4959837;28;20057;-92
2023/12/13 04:39:41;;;;;;;0.20;0.20;;;;;;;6.51;82.49;100774.78;4943203;28;20035;-93
2023/12/13 04:42:06;;;;;;;0.20;0.20;;;;;;;6.57;82.31;100770.28;4959407;28;20041;-92
2023/12/13 04:44:32;;;;;;;0.20;0.20;;;;;;;6.56;82.41;100768.59;4959496;28;20045;-92
2023/12/13 04:46:57;;;;;;;0.20;0.20;;;;;;;6.63;82.26;100768.44;4960842;28;20031;-93
2023/12/13 04:49:23;;;;;;;0.20;0.20;;;;;;;6.60;82.06;100767.66;4943431;28;20041;-89
2023/12/13 04:51:48;;;;;;;0.20;0.20;;;;;;;6.54;82.59;100778.09;4944361;28;20035;-90
2023/12/13 04:54:14;;;;;;;0.20;0.20;;;;;;;6.50;83.05;100758.53;4958806;28;20023;-91
2023/12/13 04:56:40;;;;;;;0.20;0.20;;;;;;;6.49;83.13;100754.28;4944337;28;20034;-92
2023/12/13 04:59:05;;;;;;;0.20;0.20;;;;;;;6.46;82.98;100754.34;4953357;28;20042;-93
2023/12/13 05:01:31;;;;;;;0.20;0.20;;;;;;;6.53;83.13;100739.59;4951344;28;20026;-90
2023/12/13 05:03:57;;;;;;;0.20;0.20;;;;;;;6.57;83.38;100730.88;4958138;28;20031;-90
2023/12/13 05:06:22;;;;;;;0.20;0.20;;;;;;;6.49;83.83;100709.72;4958819;28;20034;-94
2023/12/13 05:08:48;;;;;;;0.20;0.20;;;;;;;6.62;83.08;100711.03;4958787;28;20035;-93
2023/12/13 05:11:13;;;;;;;0.20;0.20;;;;;;;6.44;82.96;100686.75;4960757;28;20461;-93
2023/12/13 05:13:39;;;;;;;0.20;0.20;;;;;;;6.56;83.07;100714.63;4983615;28;20500;-93
2023/12/13 05:16:06;;;;;;;0.20;0.20;;;;;;;6.46;82.88;100676.41;4977713;28;20092;-91
2023/12/13 05:18:31;;;;;;;0.20;0.20;;;;;;;6.58;82.44;100702.56;4973744;28;20031;-91
2023/12/13 05:20:57;;;;;;;0.20;0.20;;;;;;;6.50;82.17;100706.28;4959396;28;20476;-87
2023/12/13 05:23:22;;;;;;;0.20;0.20;;;;;;;6.53;82.32;100724.16;4994733;28;20404;-93
2023/12/13 05:25:48;;;;;;;0.20;0.20;;;;;;;6.34;82.46;100716.19;4940684;28;20567;-87
2023/12/13 05:28:13;;;;;;;0.20;0.20;;;;;;;6.45;82.33;100739.81;4979133;28;20030;-91
2023/12/13 05:30:39;;;;;;;0.20;0.20;;;;;;;6.47;82.95;100735.47;5040719;22;20031;-92
2023/12/13 05:33:07;;;;;;;0.20;0.20;;;;;;;6.46;82.43;100762.06;4994782;28;20042;-85
2023/12/13 05:35:32;;;;;;;0.20;0.20;;;;;;;6.35;82.65;100748.69;4993937;28;20046;-91
2023/12/13 05:37:58;;;;;;;0.20;0.20;;;;;;;6.46;82.52;100756.91;4965738;28;20035;-86
2023/12/13 05:40:23;;;;;;;0.20;0.20;;;;;;;6.40;82.82;100746.84;4992588;28;20658;-90
2023/12/13 05:42:49;;;;;;;0.20;0.20;;;;;;;6.57;83.04;100733.47;5008172;28;20452;-84
2023/12/13 05:45:14;;;;;;;0.20;0.20;;;;;;;6.49;82.69;100731.16;5007999;28;20413;-81
2023/12/13 05:47:40;;;;;;;0.20;0.20;;;;;;;6.42;82.52;100701.38;4987127;28;20031;-83
2023/12/13 05:50:07;;;;;;;0.20;0.20;;;;;;;6.60;82.27;100721.38;4965927;28;20487;-82
2023/12/13 05:52:32;;;;;;;0.20;0.20;;;;;;;6.56;82.12;100724.91;4974546;28;20097;-83
2023/12/13 05:54:59;;;;;;;0.20;0.20;;;;;;;6.51;82.27;100739.66;4969609;28;20034;-85
2023/12/13 05:57:25;;;;;;;0.20;0.20;;;;;;;6.54;82.50;100734.41;4975665;28;20026;-82
2023/12/13 05:59:50;;;;;;;0.20;0.20;;;;;;;6.54;82.41;100748.97;4984552;28;20038;-88
2023/12/13 06:02:16;;;;;;;0.20;0.20;;;;;;;6.56;82.46;100752.34;4977151;28;20033;-88
2023/12/13 06:04:42;;;;;;;0.20;0.20;;;;;;;6.48;82.47;100724.28;4957190;28;20022;-84
2023/12/13 06:07:09;;;;;;;0.20;0.20;;;;;;;6.65;82.73;100743.50;4974888;28;20035;-86
2023/12/13 06:09:34;;;;;;;0.20;0.20;;;;;;;6.66;82.69;100738.31;4969210;28;20030;-86
2023/12/13 06:12:00;;;;;;;0.20;0.20;;;;;;;6.58;81.96;100710.28;4981708;28;20081;-87
2023/12/13 06:14:25;;;;;;;0.20;0.20;;;;;;;6.77;81.71;100732.84;4973127;28;20030;-84
2023/12/13 06:16:51;;;;;;;0.10;0.10;;;;;;;6.66;81.95;100716.91;4992442;28;20690;-92
2023/12/13 06:19:17;;;;;;;0.20;0.20;;;;;;;6.51;81.46;100698.53;4959673;28;20037;-89
2023/12/13 06:21:42;;;;;;;0.20;0.20;;;;;;;6.63;81.65;100706.75;4973440;28;20504;-84
2023/12/13 06:24:08;;;;;;;0.20;0.20;;;;;;;6.69;81.91;100722.81;4974702;28;20122;-85
2023/12/13 06:26:34;;;;;;;0.20;0.20;;;;;;;6.65;81.86;100710.94;4972754;28;20496;-83
2023/12/13 06:29:00;;;;;;;0.20;0.20;;;;;;;6.72;81.71;100696.16;4975058;28;20030;-85
2023/12/13 06:31:26;;;;;;;0.20;0.20;;;;;;;6.72;82.03;100711.59;4970258;28;20480;-86
2023/12/13 06:33:51;;;;;;;0.20;0.20;;;;;;;6.80;81.82;100717.34;4970641;28;20026;-82
2023/12/13 06:36:17;;;;;;;0.20;0.20;;;;;;;6.74;81.91;100689.22;4974535;28;20042;-88
2023/12/13 06:38:42;;;;;;;0.20;0.20;;;;;;;6.87;81.45;100695.66;4942152;28;20069;-86
2023/12/13 06:41:08;;;;;;;0.10;0.10;;;;;;;6.86;81.18;100688.84;4983122;28;20111;-89
2023/12/13 06:43:34;;;;;;;0.20;0.20;;;;;;;6.77;81.67;100678.84;4970879;28;20034;-89
2023/12/13 06:45:59;;;;;;;0.20;0.20;;;;;;;6.84;81.65;100688.88;4972856;28;20477;-82
2023/12/13 06:48:25;;;;;;;0.20;0.20;;;;;;;6.78;81.62;100672.81;4990787;28;20045;-90
2023/12/13 06:50:50;;;;;;;0.20;0.20;;;;;;;6.93;81.01;100708.31;4957257;28;20030;-83
2023/12/13 06:53:16;;;;;;;0.20;0.20;;;;;;;6.85;81.57;100712.88;4957679;28;20038;-81
2023/12/13 06:55:41;;;;;;;0.20;0.20;;;;;;;6.84;81.41;100731.75;4973241;28;20544;-81
2023/12/13 06:58:07;;;;;;;0.20;0.20;;;;;;;6.80;81.60;100728.47;4966894;28;20089;-81
2023/12/13 07:00:32;;;;;;;0.20;0.20;;;;;;;6.77;81.69;100735.41;4971125;28;20026;-86
2023/12/13 07:02:58;;;;;;;0.20;0.20;;;;;;;6.65;80.65;100722.94;4962340;28;20085;-86
2023/12/13 07:05:23;;;;;;;0.20;0.20;;;;;;;6.69;80.46;100742.56;4954813;28;20034;-85
2023/12/13 07:07:49;;;;;;;0.20;0.20;;;;;;;6.53;80.25;100725.00;4976343;28;20034;-92
2023/12/13 07:10:15;;;;;;;0.20;0.20;;;;;;;6.61;80.90;100740.22;4974329;28;20029;-81
2023/12/13 07:12:41;;;;;;;0.20;0.20;;;;;;;6.74;81.63;100733.78;4969852;28;20038;-83
2023/12/13 07:15:08;;;;;;;0.20;0.20;;;;;;;6.80;81.05;100740.47;4971812;28;20026;-83
2023/12/13 07:17:33;;;;;;;0.20;0.20;;;;;;;6.77;81.08;100714.84;4955396;28;20062;-83
2023/12/13 07:19:59;;;;;;;0.20;0.20;;;;;;;6.90;81.12;100713.56;4972215;28;20050;-83
2023/12/13 07:22:25;;;;;;;0.20;0.20;;;;;;;6.85;81.65;100692.31;4953034;28;20035;-85
2023/12/13 07:24:50;;;;;;;0.20;0.20;;;;;;;6.79;80.88;100688.22;4966247;28;20026;-82
2023/12/13 07:27:16;;;;;;;0.20;0.20;;;;;;;6.86;81.11;100694.81;4978121;28;20109;-93
2023/12/13 07:29:42;;;;;;;0.20;0.20;;;;;;;6.82;81.38;100688.09;4987909;28;20026;-83
2023/12/13 07:32:08;;;;;;;0.20;0.20;;;;;;;6.90;81.09;100711.00;4969843;28;20104;-91
2023/12/13 07:34:34;;;;;;;0.20;0.20;;;;;;;6.86;80.91;100710.25;4971682;28;20508;-83
2023/12/13 07:37:00;;;;;;;0.20;0.20;;;;;;;6.82;80.41;100718.13;4974542;28;20045;-83
2023/12/13 07:39:26;;;;;;;0.20;0.20;;;;;;;6.97;80.43;100730.47;4963852;28;20034;-87
2023/12/13 07:41:52;;;;;;;0.20;0.20;;;;;;;7.00;79.77;100717.53;4961909;28;20073;-89
2023/12/13 07:44:17;;;;;;;0.20;0.20;;;;;;;7.12;79.46;100706.00;4954767;28;20110;-91
2023/12/13 07:46:43;;;;;;;0.20;0.20;;;;;;;7.15;79.62;100691.28;4965750;28;20125;-93
2023/12/13 07:49:08;;;;;;;0.20;0.20;;;;;;;7.17;79.51;100679.19;4961568;28;20504;-88
2023/12/13 07:51:34;;;;;;;0.20;0.20;;;;;;;7.23;79.28;100673.00;4972913;28;20026;-89
2023/12/13 07:54:00;;;;;;;0.20;0.20;;;;;;;7.17;79.13;100674.06;4955370;28;20101;-90
2023/12/13 07:56:28;;;;;;;0.20;0.20;;;;;;;7.24;79.62;100674.69;4975850;28;20023;-92
2023/12/13 07:58:54;;;;;;;0.20;0.20;;;;;;;7.39;82.07;100669.03;4974150;28;20152;-89
2023/12/13 08:01:19;;;;;;;0.20;0.20;;;;;;;7.30;79.37;100653.06;4971903;28;20041;-84
2023/12/13 08:03:45;;;;;;;0.20;0.20;;;;;;;7.36;78.99;100663.13;4969551;28;20515;-86
2023/12/13 08:06:12;;;;;;;0.20;0.20;;;;;;;7.26;78.81;100638.63;4988982;28;20065;-83
2023/12/13 08:08:39;;;;;;;0.20;0.20;;;;;;;7.40;78.07;100654.44;4967710;28;20134;-79
2023/12/13 08:11:05;;;;;;;0.20;0.20;;;;;;;7.46;77.64;100649.03;4970597;28;20504;-79
2023/12/13 08:13:30;;;;;;;0.10;0.10;;;;;;;7.47;77.02;100655.88;4985380;28;20108;-82
2023/12/13 08:15:56;;;;;;;0.20;0.20;;;;;;;7.59;76.66;100665.75;4967425;28;20066;-89
2023/12/13 08:18:21;;;;;;;0.20;0.20;;;;;;;7.29;76.50;100635.97;4953714;28;20120;-82
2023/12/13 08:20:47;;;;;;;0.20;0.20;;;;;;;7.29;76.64;100639.38;4982066;28;20528;-87
2023/12/13 08:23:12;;;;;;;0.20;0.20;;;;;;;7.25;77.08;100634.38;4975268;28;20528;-83
2023/12/13 08:25:38;;;;;;;0.20;0.20;;;;;;;7.36;76.95;100650.25;4969613;28;20038;-84
2023/12/13 08:28:03;;;;;;;0.20;0.20;;;;;;;7.51;77.02;100665.19;4962762;28;20031;-82
2023/12/13 08:30:32;;;;;;;0.20;0.20;;;;;;;7.56;76.83;100676.13;4950867;28;20113;-89
2023/12/13 08:32:57;;;;;;;0.20;0.20;;;;;;;7.42;76.09;100642.34;4936512;28;20041;-79
2023/12/13 08:35:23;;;;;;;0.20;0.20;;;;;;;7.55;76.34;100641.00;4979950;28;20411;-79
2023/12/13 08:37:48;;;;;;;0.20;0.20;;;;;;;7.62;76.51;100649.34;4989700;28;20027;-90
2023/12/13 08:40:14;;;;;;;0.20;0.20;;;;;;;7.59;76.54;100642.56;4973810;28;20488;-84
2023/12/13 08:42:39;;;;;;;0.20;0.20;;;;;;;7.64;76.92;100666.41;4989388;28;20034;-88
2023/12/13 08:45:05;;;;;;;0.20;0.20;;;;;;;7.53;76.66;100649.69;4969444;28;21588;-82
2023/12/13 08:47:31;;;;;;;0.20;0.20;;;;;;;7.66;76.45;100662.03;4965411;28;20044;-89
2023/12/13 08:49:56;;;;;;;0.10;0.10;;;;;;;7.44;76.33;100614.81;4968498;28;20471;-84
2023/12/13 08:52:22;;;;;;;0.20;0.20;;;;;;;7.72;75.61;100646.38;4980227;28;20030;-85
2023/12/13 08:54:48;;;;;;;0.20;0.20;;;;;;;7.77;75.11;100653.94;4984038;28;20417;-89
2023/12/13 08:57:13;;;;;;;0.20;0.20;;;;;;;7.65;75.04;100639.75;4971764;28;20186;-86
2023/12/13 08:59:39;;;;;;;0.20;0.20;;;;;;;7.73;75.26;100655.78;4963937;28;20045;-84
2023/12/13 09:02:04;;;;;;;0.20;0.20;;;;;;;7.70;74.29;100637.03;4972405;28;20149;-88
2023/12/13 09:04:30;;;;;;;0.20;0.20;;;;;;;7.74;74.69;100633.44;4989030;28;20030;-89
2023/12/13 09:06:55;;;;;;;0.20;0.20;;;;;;;7.72;75.57;100637.81;4967253;28;20097;-90
2023/12/13 09:09:21;;;;;;;0.10;0.10;;;;;;;7.75;75.77;100615.34;4978089;28;20038;-81
2023/12/13 09:11:47;;;;;;;0.20;0.20;;;;;;;7.75;75.43;100620.50;4981344;28;20042;-85
2023/12/13 09:14:13;;;;;;;0.20;0.20;;;;;;;7.89;75.23;100632.03;4975475;28;20089;-83
2023/12/13 09:16:39;;;;;;;0.20;0.20;;;;;;;7.83;74.73;100627.09;4978874;28;20030;-83
2023/12/13 09:19:07;;;;;;;0.20;0.20;;;;;;;7.85;75.15;100625.31;4987730;28;20038;-90
2023/12/13 09:21:33;;;;;;;0.20;0.20;;;;;;;7.95;74.91;100624.06;4959838;28;20114;-90
2023/12/13 09:23:58;;;;;;;0.20;0.20;;;;;;;7.97;75.43;100619.72;4982210;28;20027;-82
2023/12/13 09:26:24;;;;;;;0.20;0.20;;;;;;;7.97;76.05;100630.03;4985670;28;20026;-92
2023/12/13 09:28:50;;;;;;;0.20;0.20;;;;;;;8.10;75.13;100625.22;4944164;28;20054;-86
2023/12/13 09:31:16;;;;;;;0.20;0.20;;;;;;;8.17;77.50;100611.22;4972367;28;20078;-84
2023/12/13 09:33:43;;;;;;;0.20;0.20;;;;;;;8.24;74.90;100603.16;4974666;28;20087;-93
2023/12/13 09:36:09;;;;;;;0.20;0.20;;;;;;;8.46;75.54;100604.94;4967788;28;20109;-91
2023/12/13 09:38:35;;;;;;;0.20;0.20;;;;;;;8.62;74.78;100598.22;4973101;28;20030;-89
2023/12/13 09:41:00;;;;;;;0.20;0.20;;;;;;;8.54;74.04;100595.13;4955365;28;20034;-83
2023/12/13 09:43:26;;;;;;;0.20;0.20;;;;;;;8.51;73.45;100592.69;4959255;28;20035;-87
2023/12/13 09:45:52;;;;;;;0.20;0.20;;;;;;;8.49;73.72;100586.75;4959254;28;20026;-87
2023/12/13 09:48:21;;;;;;;0.20;0.20;;;;;;;8.50;74.78;100567.81;4958168;28;20493;-87
2023/12/13 09:50:51;;;;;;;0.20;0.20;;;;;;;8.49;74.40;100571.28;4975105;28;20019;-90
2023/12/13 09:53:16;;;;;;;0.20;0.20;;;;;;;8.45;74.33;100559.41;4960067;28;20049;-87
2023/12/13 09:55:43;;;;;;;0.20;0.20;;;;;;;8.56;73.87;100558.09;4950579;28;20480;-90
2023/12/13 09:58:08;;;;;;;0.20;0.20;;;;;;;8.67;74.75;100544.75;4981520;28;20037;-88
2023/12/13 10:00:35;;;;;;;0.20;0.20;;;;;;;8.69;73.10;100557.56;4962211;28;20109;-87
2023/12/13 10:03:00;;;;;;;0.20;0.20;;;;;;;8.53;74.40;100555.63;4983965;28;20419;-84
2023/12/13 10:05:26;;;;;;;0.20;0.20;;;;;;;8.64;74.38;100555.16;4962551;28;20026;-87
2023/12/13 10:08:01;;;;;;;0.20;0.20;;;;;;;8.50;74.85;100563.47;4966121;28;20489;-91
2023/12/13 10:10:31;;;;;;;0.20;0.20;;;;;;;8.45;75.07;100542.19;4951094;28;20034;-81
2023/12/13 10:12:58;;;;;;;0.20;0.20;;;;;;;8.54;75.50;100562.44;4963909;28;20461;-89
2023/12/13 10:15:27;;;;;;;0.20;0.20;;;;;;;8.34;74.67;100514.28;4954217;28;20045;-88
2023/12/13 10:17:53;;;;;;;0.20;0.20;;;;;;;8.75;74.48;100546.97;4965466;28;20019;-87
2023/12/13 10:20:19;;;;;;;0.20;0.20;;;;;;;8.65;74.17;100536.19;4971079;28;20062;-87
2023/12/13 10:22:44;;;;;;;0.10;0.10;;;;;;;8.70;73.35;100539.44;4973160;28;20523;-88
2023/12/13 10:25:11;;;;;;;0.20;0.20;;;;;;;8.70;73.82;100534.28;4975172;28;20541;-94
2023/12/13 10:27:36;;;;;;;0.20;0.20;;;;;;;8.79;73.73;100546.78;4974424;28;20030;-91
2023/12/13 10:30:03;;;;;;;0.20;0.20;;;;;;;8.57;73.59;100508.19;4939024;28;20041;-85
2023/12/13 10:32:28;;;;;;;0.20;0.20;;;;;;;8.71;72.94;100535.97;4978588;28;20136;-85
2023/12/13 10:34:54;;;;;;;0.20;0.20;;;;;;;8.54;73.62;100521.19;4986538;28;20134;-90
2023/12/13 10:37:20;;;;;;;0.15;0.15;;;;;;;8.72;72.92;100547.09;4971430;28;20042;-82
2023/12/13 10:39:45;;;;;;;0.20;0.20;;;;;;;8.60;73.75;100522.69;4971678;28;20456;-84
2023/12/13 10:42:11;;;;;;;0.20;0.20;;;;;;;8.63;75.87;100519.97;4961599;28;20065;-81
2023/12/13 10:44:36;;;;;;;0.10;0.10;;;;;;;8.81;78.69;100521.75;4970083;28;20444;-82
2023/12/13 10:47:05;;;;;;;0.20;0.20;;;;;;;8.84;75.50;100525.94;4971820;28;20468;-83
2023/12/13 10:49:31;;;;;;;0.20;0.20;;;;;;;8.72;74.50;100505.84;4955254;28;20039;-85
2023/12/13 10:51:56;;;;;;;0.20;0.20;;;;;;;8.97;73.19;100532.25;4969014;28;20034;-86
2023/12/13 10:54:22;;;;;;;0.20;0.20;;;;;;;8.70;73.02;100490.44;4948435;28;20031;-82
2023/12/13 10:56:48;;;;;;;0.20;0.20;;;;;;;8.75;72.83;100496.25;4963293;28;20026;-80
2023/12/13 10:59:13;;;;;;;0.20;0.20;;;;;;;8.84;72.53;100510.47;4968577;28;20069;-82
2023/12/13 11:01:39;;;;;;;0.20;0.20;;;;;;;8.88;72.91;100519.75;4954220;28;20085;-79
2023/12/13 11:04:09;;;;;;;0.10;0.10;;;;;;;8.80;73.01;100514.94;4957044;28;20100;-79
2023/12/13 11:06:36;;;;;;;0.20;0.20;;;;;;;8.75;73.86;100497.97;4973825;28;20041;-86
2023/12/13 11:09:10;;;;;;;0.20;0.20;;;;;;;8.76;73.96;100495.34;4973121;28;20054;-82
2023/12/13 11:11:36;;;;;;;0.10;0.10;;;;;;;8.66;73.85;100486.34;4971474;28;20039;-83
2023/12/13 11:14:01;;;;;;;0.20;0.20;;;;;;;8.69;73.57;100491.34;4987917;28;20034;-83
2023/12/13 11:16:27;;;;;;;0.20;0.20;;;;;;;8.64;74.55;100493.28;4987645;28;20030;-84
2023/12/13 11:18:55;;;;;;;0.20;0.20;;;;;;;8.62;74.01;100474.44;4966333;28;20111;-81
2023/12/13 11:21:30;;;;;;;0.20;0.20;;;;;;;8.68;74.10;100479.34;4981923;28;20116;-83
2023/12/13 11:23:57;;;;;;;0.20;0.20;;;;;;;8.59;73.97;100459.13;4964454;28;20037;-85
2023/12/13 11:26:26;;;;;;;0.20;0.20;;;;;;;8.70;73.95;100472.38;4969528;28;20134;-86
2023/12/13 11:28:54;;;;;;;0.20;0.20;;;;;;;8.60;73.93;100466.78;4967869;28;20030;-84